Time;durP1;ratioP1;P1;durP2;ratioP2;P2;SDS_P1;SDS_P2;PMS_P1;PMS_P2;Temp;Humidity;BMP_temperature;BMP_pressure;BME280_temperature;BME280_humidity;BME280_pressure;Samples;Min_cycle;Max_cycle;Signal;HPM_P1;HPM_P2
2022/08/06 00:00:41;;;;;;;6.55;5.72;;;;;;;25.49;55.66;99513.03;5060373;28;20025;-68
2022/08/06 00:03:07;;;;;;;8.27;5.47;;;;;;;25.40;56.68;99512.72;5076307;28;20265;-69
2022/08/06 00:05:33;;;;;;;12.25;5.40;;;;;;;25.49;56.14;99510.31;5059652;28;20033;-68
2022/08/06 00:07:58;;;;;;;8.18;5.32;;;;;;;25.53;56.34;99509.50;5060899;28;20024;-68
2022/08/06 00:10:25;;;;;;;10.90;5.20;;;;;;;25.63;55.65;99498.69;5059293;28;20057;-68
2022/08/06 00:12:51;;;;;;;8.50;5.78;;;;;;;25.45;55.36;99513.56;5059548;28;20048;-69
2022/08/06 00:15:18;;;;;;;9.63;5.13;;;;;;;25.50;55.55;99501.09;5060574;28;20233;-69
2022/08/06 00:17:44;;;;;;;6.25;5.28;;;;;;;25.58;55.54;99506.00;5059368;28;20377;-69
2022/08/06 00:20:12;;;;;;;7.88;5.93;;;;;;;25.57;55.67;99507.91;5046998;28;20049;-69
2022/08/06 00:22:37;;;;;;;9.10;5.40;;;;;;;25.44;55.66;99511.09;5060093;28;20029;-69
2022/08/06 00:25:04;;;;;;;8.60;5.75;;;;;;;25.54;55.44;99515.75;5061170;28;20032;-66
2022/08/06 00:27:29;;;;;;;8.20;5.30;;;;;;;25.61;55.06;99508.19;5060847;28;20105;-67
2022/08/06 00:29:56;;;;;;;11.02;5.72;;;;;;;25.44;54.93;99519.22;5058908;28;20041;-69
2022/08/06 00:32:21;;;;;;;7.03;5.30;;;;;;;25.48;55.95;99520.34;5059329;28;20096;-68
2022/08/06 00:34:47;;;;;;;9.00;5.28;;;;;;;25.28;54.47;99514.81;5061808;28;20024;-69
2022/08/06 00:37:12;;;;;;;11.45;5.78;;;;;;;25.22;55.67;99514.00;5063429;28;20051;-69
2022/08/06 00:39:38;;;;;;;9.55;5.78;;;;;;;25.41;55.31;99517.06;5060987;28;20052;-69
2022/08/06 00:42:04;;;;;;;8.35;5.57;;;;;;;25.28;55.85;99522.97;5059268;28;20076;-69
2022/08/06 00:44:29;;;;;;;11.95;6.32;;;;;;;25.33;55.19;99518.38;5058811;28;20201;-68
2022/08/06 00:46:54;;;;;;;11.32;6.30;;;;;;;25.30;55.51;99523.50;5058925;28;20051;-67
2022/08/06 00:49:20;;;;;;;16.27;6.63;;;;;;;25.08;55.50;99516.34;5060344;28;20330;-69
2022/08/06 00:51:46;;;;;;;10.25;6.45;;;;;;;24.96;56.27;99526.50;5059048;28;20047;-68
2022/08/06 00:54:11;;;;;;;8.45;6.20;;;;;;;24.67;56.65;99520.63;5057609;28;20031;-69
2022/08/06 00:56:37;;;;;;;12.43;6.50;;;;;;;24.62;56.79;99519.78;5058807;28;20032;-69
2022/08/06 00:59:03;;;;;;;8.65;6.00;;;;;;;24.47;57.36;99506.94;5060364;28;20033;-69
2022/08/06 01:01:30;;;;;;;10.52;6.40;;;;;;;24.64;57.15;99525.75;5057717;28;20037;-68
2022/08/06 01:03:55;;;;;;;14.27;6.72;;;;;;;24.66;56.27;99521.69;5058910;28;20036;-68
2022/08/06 01:06:21;;;;;;;16.90;6.95;;;;;;;24.49;56.36;99516.44;5059228;28;20041;-69
2022/08/06 01:08:46;;;;;;;13.93;6.90;;;;;;;24.30;57.32;99508.97;5058638;28;20082;-69
2022/08/06 01:11:12;;;;;;;12.98;6.38;;;;;;;24.57;56.73;99523.25;5058575;28;20040;-68
2022/08/06 01:13:37;;;;;;;9.10;6.32;;;;;;;24.72;56.55;99527.97;5059623;28;20300;-69
2022/08/06 01:16:15;;;;;;;17.42;6.97;;;;;;;24.72;56.84;99528.78;5058003;28;20021;-69
2022/08/06 01:19:00;;;;;;;11.65;6.10;;;;;;;24.60;55.66;99519.22;5057223;28;20048;-69
2022/08/06 01:21:56;;;;;;;12.10;6.43;;;;;;;24.48;56.98;99517.50;5062397;28;20032;-69
2022/08/06 01:25:01;;;;;;;11.43;6.00;;;;;;;24.51;57.12;99519.69;5061361;28;20226;-69
2022/08/06 01:28:01;;;;;;;11.23;5.93;;;;;;;24.60;56.55;99516.50;5063380;28;20136;-69
2022/08/06 01:30:33;;;;;;;10.13;6.53;;;;;;;24.38;56.78;99517.41;5057681;28;20099;-69
2022/08/06 01:33:07;;;;;;;8.70;6.18;;;;;;;24.45;56.34;99518.03;5073282;28;20021;-68
2022/08/06 01:35:40;;;;;;;7.47;5.72;;;;;;;24.38;56.08;99511.19;5067887;28;20337;-69
2022/08/06 01:38:10;;;;;;;9.73;6.20;;;;;;;24.36;56.53;99519.56;5066008;28;20029;-69
2022/08/06 01:40:38;;;;;;;10.10;5.80;;;;;;;24.29;56.13;99508.16;5063239;28;20443;-69
2022/08/06 01:43:07;;;;;;;7.95;6.13;;;;;;;24.09;56.95;99500.63;5063875;28;20079;-69
2022/08/06 01:45:35;;;;;;;10.00;6.05;;;;;;;24.00;57.23;99504.88;5056775;28;20045;-69
2022/08/06 01:48:08;;;;;;;11.48;5.78;;;;;;;24.00;57.43;99506.75;5056799;28;20029;-68
2022/08/06 01:50:38;;;;;;;7.47;5.50;;;;;;;23.99;57.35;99514.06;5067486;28;20108;-69
2022/08/06 01:53:06;;;;;;;10.95;6.60;;;;;;;24.07;57.48;99500.06;5063353;28;20093;-69
2022/08/06 01:55:38;;;;;;;14.38;5.68;;;;;;;23.86;58.10;99503.59;5063130;28;20135;-69
2022/08/06 01:58:05;;;;;;;8.77;6.07;;;;;;;24.22;57.33;99506.69;5063044;28;20044;-69
2022/08/06 02:00:32;;;;;;;8.93;5.40;;;;;;;24.28;57.50;99506.50;5061593;28;20094;-69
2022/08/06 02:03:01;;;;;;;10.40;5.90;;;;;;;24.33;56.79;99506.56;5062624;28;20031;-69
2022/08/06 02:05:27;;;;;;;12.77;6.05;;;;;;;24.43;56.86;99501.22;5062341;28;20037;-69
2022/08/06 02:07:56;;;;;;;8.35;6.38;;;;;;;24.45;56.51;99503.69;5068376;28;20091;-69
2022/08/06 02:10:24;;;;;;;11.88;6.50;;;;;;;24.31;56.68;99508.69;5062321;28;20213;-69
2022/08/06 02:12:50;;;;;;;13.95;6.53;;;;;;;24.26;57.51;99497.81;5062648;28;20025;-69
2022/08/06 02:15:26;;;;;;;7.03;5.95;;;;;;;24.40;57.75;99503.63;5062597;28;20072;-68
2022/08/06 02:17:56;;;;;;;7.75;6.00;;;;;;;24.50;57.34;99509.94;5062355;28;20020;-69
2022/08/06 02:20:41;;;;;;;13.45;6.60;;;;;;;24.55;57.64;99495.63;5062530;28;20044;-68
2022/08/06 02:23:11;;;;;;;8.15;6.30;;;;;;;24.58;57.74;99511.34;5062484;28;20112;-69
2022/08/06 02:25:39;;;;;;;8.80;6.20;;;;;;;24.58;57.96;99508.66;5062360;28;20068;-69
2022/08/06 02:28:07;;;;;;;10.45;5.97;;;;;;;24.51;56.92;99510.75;5060721;28;20032;-69
2022/08/06 02:30:40;;;;;;;10.00;5.88;;;;;;;24.49;57.46;99502.91;5060448;28;20039;-69
2022/08/06 02:33:07;;;;;;;11.60;7.25;;;;;;;24.46;57.03;99498.00;5060043;28;20417;-69
2022/08/06 02:35:39;;;;;;;13.05;5.97;;;;;;;24.45;57.11;99500.97;5060986;28;20051;-69
2022/08/06 02:38:11;;;;;;;9.35;5.72;;;;;;;24.39;57.87;99492.00;5060392;28;20060;-68
2022/08/06 02:40:43;;;;;;;11.60;5.97;;;;;;;24.41;56.90;99500.66;5057675;28;20098;-69
2022/08/06 02:43:18;;;;;;;14.07;6.15;;;;;;;24.54;57.41;99495.91;5060798;28;20037;-69
2022/08/06 02:45:57;;;;;;;9.27;6.53;;;;;;;24.51;57.33;99491.81;5061193;28;20044;-68
2022/08/06 02:48:29;;;;;;;8.88;6.38;;;;;;;24.47;57.16;99485.28;5060585;28;20194;-69
2022/08/06 02:50:56;;;;;;;10.55;5.95;;;;;;;24.32;57.83;99499.50;5059219;28;20033;-69
2022/08/06 02:53:30;;;;;;;12.13;6.80;;;;;;;24.50;57.96;99496.41;5060437;28;20334;-69
2022/08/06 02:56:02;;;;;;;8.00;6.13;;;;;;;24.58;57.43;99495.13;5060821;28;20056;-69
2022/08/06 02:58:37;;;;;;;11.68;6.15;;;;;;;24.59;56.92;99496.75;5060672;28;20092;-68
2022/08/06 03:01:07;;;;;;;8.15;6.43;;;;;;;24.57;57.18;99498.91;5062765;28;20033;-68
2022/08/06 03:03:34;;;;;;;11.30;6.43;;;;;;;24.48;56.95;99498.56;5059192;28;20032;-68
2022/08/06 03:06:02;;;;;;;8.93;6.45;;;;;;;24.46;57.42;99508.81;5061103;28;20029;-69
2022/08/06 03:08:30;;;;;;;10.05;6.43;;;;;;;24.37;57.95;99510.38;5060469;28;20324;-69
2022/08/06 03:10:57;;;;;;;12.50;6.80;;;;;;;24.33;57.82;99514.66;5060146;28;20063;-69
2022/08/06 03:13:24;;;;;;;8.02;6.50;;;;;;;24.26;57.33;99508.63;5060113;28;20095;-69
2022/08/06 03:15:52;;;;;;;12.07;6.03;;;;;;;24.28;57.80;99500.28;5073711;28;20381;-69
2022/08/06 03:18:18;;;;;;;8.77;6.57;;;;;;;24.23;57.53;99502.91;5055518;28;20039;-68
2022/08/06 03:20:44;;;;;;;12.63;7.00;;;;;;;24.23;57.76;99498.31;5075539;28;20323;-68
2022/08/06 03:23:12;;;;;;;14.77;6.97;;;;;;;24.35;57.85;99495.47;5060360;28;20033;-69
2022/08/06 03:25:39;;;;;;;13.98;7.00;;;;;;;24.46;57.64;99505.31;5060118;28;20029;-68
2022/08/06 03:28:06;;;;;;;13.77;7.32;;;;;;;24.52;57.23;99502.38;5056650;28;20434;-68
2022/08/06 03:30:32;;;;;;;12.10;6.55;;;;;;;24.41;57.45;99497.97;5053028;28;20051;-68
2022/08/06 03:33:07;;;;;;;18.70;7.10;;;;;;;24.43;57.19;99514.75;5060070;28;20052;-69
2022/08/06 03:35:35;;;;;;;16.13;7.15;;;;;;;24.37;57.42;99507.66;5061864;28;20096;-69
2022/08/06 03:38:01;;;;;;;16.33;7.57;;;;;;;24.45;57.19;99515.31;5061267;28;20048;-69
2022/08/06 03:40:29;;;;;;;22.25;8.32;;;;;;;24.32;57.18;99520.34;5059347;28;20029;-69
2022/08/06 03:42:55;;;;;;;18.70;7.45;;;;;;;24.23;57.97;99519.97;5059342;28;20028;-69
2022/08/06 03:45:20;;;;;;;12.73;7.05;;;;;;;24.15;58.21;99515.03;5060143;28;20052;-70
2022/08/06 03:47:54;;;;;;;14.27;6.90;;;;;;;24.15;57.56;99507.72;5059616;28;20035;-68
2022/08/06 03:50:30;;;;;;;15.10;7.13;;;;;;;24.18;57.98;99501.78;5054408;28;20230;-68
2022/08/06 03:53:07;;;;;;;11.45;6.50;;;;;;;24.29;57.35;99501.91;5073314;28;20112;-69
2022/08/06 03:55:35;;;;;;;16.92;7.78;;;;;;;24.30;57.30;99496.25;5060468;28;20140;-68
2022/08/06 03:58:06;;;;;;;20.15;7.85;;;;;;;24.40;57.12;99501.75;5059902;28;20033;-69
2022/08/06 04:00:41;;;;;;;12.48;7.70;;;;;;;24.54;56.16;99506.72;5059848;28;20207;-68
2022/08/06 04:03:08;;;;;;;14.63;7.32;;;;;;;24.37;56.48;99515.78;5059360;28;20037;-68
2022/08/06 04:05:36;;;;;;;12.40;6.90;;;;;;;24.43;56.21;99513.94;5055574;28;20071;-69
2022/08/06 04:08:07;;;;;;;13.38;7.18;;;;;;;24.41;56.00;99516.09;5057932;28;20031;-68
2022/08/06 04:10:37;;;;;;;14.88;6.97;;;;;;;24.41;55.59;99499.84;5058278;28;20037;-68
2022/08/06 04:13:05;;;;;;;11.23;6.97;;;;;;;24.43;55.45;99514.75;5057461;28;20029;-68
2022/08/06 04:15:31;;;;;;;14.57;7.47;;;;;;;24.42;56.04;99517.72;5059924;28;20245;-69
2022/08/06 04:17:58;;;;;;;16.50;7.30;;;;;;;24.48;56.01;99519.41;5059759;28;20024;-69
2022/08/06 04:20:25;;;;;;;14.52;7.85;;;;;;;24.41;56.31;99508.78;5059080;28;20040;-69
2022/08/06 04:22:51;;;;;;;20.17;7.28;;;;;;;24.44;56.07;99502.84;5060317;28;20021;-69
2022/08/06 04:25:17;;;;;;;11.27;7.35;;;;;;;24.42;56.44;99506.91;5059383;28;20040;-69
2022/08/06 04:27:45;;;;;;;14.93;6.90;;;;;;;24.55;56.37;99520.00;5059357;28;20032;-69
2022/08/06 04:30:12;;;;;;;12.73;7.57;;;;;;;24.36;56.42;99516.88;5063053;28;20040;-69
2022/08/06 04:32:39;;;;;;;11.40;7.90;;;;;;;24.33;56.43;99520.09;5063414;28;20033;-68
2022/08/06 04:35:07;;;;;;;23.73;7.68;;;;;;;24.40;56.36;99526.09;5062473;28;20089;-69
2022/08/06 04:37:34;;;;;;;12.10;7.45;;;;;;;24.44;56.59;99518.28;5060096;28;20346;-67
2022/08/06 04:40:01;;;;;;;13.20;7.72;;;;;;;24.26;57.26;99521.34;5062756;28;20396;-69
2022/08/06 04:42:27;;;;;;;12.27;8.05;;;;;;;24.24;58.15;99512.66;5063077;28;20041;-69
2022/08/06 04:44:52;;;;;;;14.15;8.55;;;;;;;24.24;57.97;99515.38;5062088;28;20029;-69
2022/08/06 04:47:18;;;;;;;14.98;9.52;;;;;;;24.45;58.19;99528.03;5064178;28;20052;-67
2022/08/06 04:49:44;;;;;;;16.08;8.73;;;;;;;24.54;57.93;99526.47;5062732;28;20091;-69
2022/08/06 04:52:21;;;;;;;10.98;7.80;;;;;;;24.37;58.74;99528.50;5061805;28;20242;-69
2022/08/06 04:54:46;;;;;;;13.75;10.43;;;;;;;24.62;58.09;99531.41;5063490;28;20044;-69
2022/08/06 04:57:12;;;;;;;11.23;7.30;;;;;;;24.77;56.84;99530.72;5062169;28;20033;-68
2022/08/06 04:59:37;;;;;;;9.77;7.47;;;;;;;24.58;57.46;99543.03;5062376;28;20319;-69
2022/08/06 05:02:03;;;;;;;14.88;7.82;;;;;;;24.63;57.40;99537.66;5063184;28;20227;-68
2022/08/06 05:04:29;;;;;;;15.57;7.93;;;;;;;24.64;57.62;99540.09;5065424;28;20025;-68
2022/08/06 05:07:20;;;;;;;11.63;7.78;;;;;;;24.96;56.77;99542.75;5064295;28;20036;-69
2022/08/06 05:09:46;;;;;;;9.85;7.20;;;;;;;25.11;56.20;99536.69;5054444;28;20051;-69
2022/08/06 05:12:38;;;;;;;11.15;8.15;;;;;;;25.20;55.85;99543.25;5062451;28;20037;-68
2022/08/06 05:15:27;;;;;;;11.10;6.90;;;;;;;25.53;55.41;99528.50;5061679;28;20029;-67
2022/08/06 05:18:12;;;;;;;13.82;6.78;;;;;;;25.95;54.63;99538.41;5061153;28;20045;-68
2022/08/06 05:20:40;;;;;;;10.73;6.85;;;;;;;26.19;53.06;99536.03;5063174;28;20056;-69
2022/08/06 05:23:15;;;;;;;11.38;6.75;;;;;;;26.42;52.18;99535.56;5063559;28;20032;-67
2022/08/06 05:25:41;;;;;;;11.60;6.50;;;;;;;26.59;51.93;99533.38;5058590;28;20035;-67
2022/08/06 05:28:07;;;;;;;10.80;6.80;;;;;;;26.76;51.43;99527.66;5063730;28;20041;-67
2022/08/06 05:30:33;;;;;;;8.82;6.28;;;;;;;27.03;50.80;99532.81;5061929;28;20037;-67
2022/08/06 05:32:59;;;;;;;10.38;6.60;;;;;;;26.86;51.01;99527.66;5063790;28;20043;-67
2022/08/06 05:35:25;;;;;;;17.92;8.02;;;;;;;27.29;49.91;99523.53;5064646;28;20255;-66
2022/08/06 05:37:51;;;;;;;14.38;7.75;;;;;;;27.16;50.60;99535.00;5060676;28;20032;-67
2022/08/06 05:40:16;;;;;;;10.70;6.72;;;;;;;27.19;50.11;99536.34;5062468;28;20094;-67
2022/08/06 05:42:41;;;;;;;8.13;6.47;;;;;;;27.41;49.63;99536.81;5061942;28;20029;-67
2022/08/06 05:45:11;;;;;;;9.88;6.43;;;;;;;27.80;48.40;99539.66;5061301;28;20039;-67
2022/08/06 05:47:39;;;;;;;8.88;6.30;;;;;;;27.62;48.46;99537.56;5061395;28;20062;-67
2022/08/06 05:50:09;;;;;;;17.23;7.22;;;;;;;27.75;48.98;99536.16;5062046;28;20088;-67
2022/08/06 05:53:16;;;;;;;20.02;7.55;;;;;;;27.96;48.53;99540.38;5062430;28;20041;-67
2022/08/06 05:55:59;;;;;;;10.63;6.38;;;;;;;27.83;48.44;99539.09;5039140;28;20045;-67
2022/08/06 05:58:35;;;;;;;8.25;6.32;;;;;;;28.13;47.86;99527.25;5060711;28;20382;-67
2022/08/06 06:01:03;;;;;;;12.98;6.32;;;;;;;28.16;47.75;99525.88;5061803;28;20029;-67
2022/08/06 06:03:29;;;;;;;9.30;6.32;;;;;;;28.26;47.67;99529.38;5061663;28;20045;-67
2022/08/06 06:06:00;;;;;;;10.10;6.20;;;;;;;28.34;47.50;99535.31;5061290;28;20289;-67
2022/08/06 06:08:26;;;;;;;10.93;6.35;;;;;;;28.46;47.14;99531.13;5062220;28;20032;-67
2022/08/06 06:10:53;;;;;;;12.10;7.05;;;;;;;28.80;46.39;99535.72;5061561;28;20045;-67
2022/08/06 06:13:20;;;;;;;7.75;6.30;;;;;;;29.03;45.68;99526.00;5061576;28;20033;-67
2022/08/06 06:15:53;;;;;;;8.20;6.63;;;;;;;28.96;46.37;99534.50;5060465;28;20092;-67
2022/08/06 06:18:50;;;;;;;11.27;6.55;;;;;;;29.07;45.49;99530.56;5062238;28;20036;-67
2022/08/06 06:21:26;;;;;;;12.02;6.30;;;;;;;29.10;45.72;99527.28;5061677;28;20083;-67
2022/08/06 06:23:56;;;;;;;11.43;6.60;;;;;;;29.23;45.56;99521.16;5058166;28;20059;-67
2022/08/06 06:26:42;;;;;;;10.43;6.97;;;;;;;28.71;45.32;99418.38;5061304;28;20036;-67
2022/08/06 06:29:29;;;;;;;7.22;5.57;;;;;;;29.57;44.30;99517.50;5061349;28;20056;-67
2022/08/06 06:32:11;;;;;;;10.48;6.45;;;;;;;29.42;44.70;99515.75;5076205;28;20067;-67
2022/08/06 06:34:54;;;;;;;9.77;6.93;;;;;;;29.53;45.11;99514.53;5060473;28;20053;-67
2022/08/06 06:37:32;;;;;;;10.95;6.47;;;;;;;29.35;45.17;99509.03;5060049;28;20033;-67
2022/08/06 06:40:06;;;;;;;12.90;6.20;;;;;;;29.27;45.45;99510.47;5061089;28;20025;-67
2022/08/06 06:42:40;;;;;;;8.68;6.78;;;;;;;29.06;45.76;99514.50;5058889;28;20104;-67
2022/08/06 06:45:18;;;;;;;;;;;;;;;29.13;45.61;99510.38;5060693;28;20067;-67
2022/08/06 06:47:56;;;;;;;11.38;6.78;;;;;;;29.13;46.21;99507.63;5057773;28;19913;-67
2022/08/06 06:50:27;;;;;;;12.65;7.40;;;;;;;29.33;45.37;99505.78;5041187;28;20038;-67
2022/08/06 06:52:54;;;;;;;11.68;8.05;;;;;;;29.40;44.65;99493.41;5040956;28;20029;-68
2022/08/06 06:55:24;;;;;;;15.68;7.53;;;;;;;29.29;45.51;99500.09;5061272;28;20028;-68
2022/08/06 06:57:58;;;;;;;10.57;6.45;;;;;;;29.27;45.31;99498.75;5060635;28;20033;-67
2022/08/06 07:00:24;;;;;;;11.60;6.38;;;;;;;29.16;45.60;99507.06;5060600;28;20035;-67
2022/08/06 07:02:52;;;;;;;9.38;6.13;;;;;;;29.15;44.98;99502.72;5056866;28;20047;-67
2022/08/06 07:05:19;;;;;;;7.10;6.40;;;;;;;29.30;45.03;99498.19;5076316;28;20087;-67
2022/08/06 07:07:46;;;;;;;11.63;6.53;;;;;;;29.53;45.20;99484.53;5059279;28;20032;-67
2022/08/06 07:10:14;;;;;;;10.00;7.53;;;;;;;29.65;45.08;99481.38;5060406;28;20066;-67
2022/08/06 07:12:42;;;;;;;9.25;7.05;;;;;;;30.02;43.72;99486.06;5060463;28;20025;-67
2022/08/06 07:15:09;;;;;;;11.05;6.97;;;;;;;29.76;44.74;99474.66;5060756;28;20037;-67
2022/08/06 07:17:37;;;;;;;8.95;5.97;;;;;;;30.17;43.10;99490.47;5059211;28;20029;-67
2022/08/06 07:20:07;;;;;;;11.63;6.10;;;;;;;30.36;43.45;99485.00;5060882;28;20110;-67
2022/08/06 07:22:36;;;;;;;10.88;7.40;;;;;;;30.13;43.79;99476.59;5062551;28;20065;-67
2022/08/06 07:25:04;;;;;;;13.50;6.63;;;;;;;30.16;43.11;99475.19;5059296;28;20135;-67
2022/08/06 07:27:37;;;;;;;9.05;6.05;;;;;;;30.38;43.17;99477.31;5060501;28;20368;-68
2022/08/06 07:30:03;;;;;;;12.98;6.60;;;;;;;30.72;41.54;99477.84;5058863;28;20056;-67
2022/08/06 07:32:30;;;;;;;14.55;6.10;;;;;;;30.79;41.54;99472.78;5062759;28;20377;-67
2022/08/06 07:34:56;;;;;;;20.27;5.80;;;;;;;30.73;40.98;99467.72;5059790;28;20037;-67
2022/08/06 07:37:26;;;;;;;8.27;5.80;;;;;;;30.47;41.15;99478.25;5062760;28;20210;-68
2022/08/06 07:39:54;;;;;;;7.63;6.03;;;;;;;30.30;42.16;99476.09;5060101;28;20044;-67
2022/08/06 07:42:23;;;;;;;11.40;5.88;;;;;;;30.48;42.24;99467.03;5059795;28;20037;-67
2022/08/06 07:44:52;;;;;;;9.40;6.28;;;;;;;31.27;40.59;99471.63;5059756;28;20033;-67
2022/08/06 07:47:21;;;;;;;10.60;6.28;;;;;;;31.68;39.34;99442.25;5056733;28;20036;-67
2022/08/06 07:49:52;;;;;;;15.98;6.10;;;;;;;32.10;37.86;99462.13;5060900;28;20049;-68
2022/08/06 07:52:18;;;;;;;12.85;5.90;;;;;;;32.38;38.36;99458.19;5060056;28;20028;-68
2022/08/06 07:54:44;;;;;;;13.60;5.38;;;;;;;32.62;37.31;99460.56;5056176;28;20043;-67
2022/08/06 07:57:11;;;;;;;8.25;5.78;;;;;;;33.16;36.82;99460.50;5061157;28;20029;-67
2022/08/06 07:59:36;;;;;;;10.45;5.43;;;;;;;33.17;36.25;99462.91;5059086;28;20037;-67
2022/08/06 08:02:04;;;;;;;10.43;5.80;;;;;;;33.42;35.97;99457.88;5059961;28;20546;-67
2022/08/06 08:07:15;;;;;;;7.75;5.60;;;;;;;33.54;35.49;99447.88;5064164;28;20238;-67
2022/08/06 08:09:43;;;;;;;12.30;7.35;;;;;;;33.78;35.35;99449.34;5063238;28;20092;-67
2022/08/06 08:12:13;;;;;;;8.65;5.53;;;;;;;33.61;34.98;99444.66;5063971;28;20033;-67
2022/08/06 08:14:42;;;;;;;7.72;5.57;;;;;;;33.64;35.10;99453.06;5063718;28;20025;-67
2022/08/06 08:17:08;;;;;;;8.63;5.18;;;;;;;33.87;34.19;99447.44;5063551;28;20454;-67
2022/08/06 08:19:34;;;;;;;5.90;5.30;;;;;;;34.00;34.16;99440.97;5064347;28;20056;-67
2022/08/06 08:22:05;;;;;;;8.18;5.13;;;;;;;34.04;33.54;99443.88;5063913;28;20033;-67
2022/08/06 08:24:33;;;;;;;8.00;4.97;;;;;;;34.30;33.37;99433.66;5064328;28;20082;-67
2022/08/06 08:26:59;;;;;;;7.88;5.75;;;;;;;34.06;33.69;99442.41;5063381;28;20258;-67
2022/08/06 08:29:25;;;;;;;9.70;5.25;;;;;;;34.09;33.02;99435.47;5062948;28;20033;-67
2022/08/06 08:31:51;;;;;;;9.40;5.13;;;;;;;34.03;33.02;99431.28;5057457;28;20064;-67
2022/08/06 08:34:17;;;;;;;8.05;5.13;;;;;;;34.11;34.68;99431.25;5063071;28;20331;-67
2022/08/06 08:36:43;;;;;;;7.65;5.85;;;;;;;34.42;33.50;99427.53;5060977;28;20044;-67
2022/08/06 08:39:08;;;;;;;5.65;5.03;;;;;;;34.71;31.51;99427.59;5059660;28;20036;-67
2022/08/06 08:41:43;;;;;;;7.88;4.85;;;;;;;34.63;31.89;99425.69;5064583;28;20021;-67
2022/08/06 08:44:09;;;;;;;7.80;5.43;;;;;;;34.20;32.89;99420.25;5061607;28;20036;-68
2022/08/06 08:46:38;;;;;;;11.60;6.50;;;;;;;34.27;32.48;99412.31;5059725;28;20334;-67
2022/08/06 08:49:06;;;;;;;7.18;4.93;;;;;;;34.59;30.19;99413.72;5060939;28;20029;-67
2022/08/06 08:51:39;;;;;;;9.23;4.50;;;;;;;34.55;30.51;99416.34;5058140;28;20070;-68
2022/08/06 08:54:10;;;;;;;7.15;5.03;;;;;;;34.30;31.81;99410.84;5061650;28;20051;-67
2022/08/06 08:56:37;;;;;;;14.30;4.80;;;;;;;34.42;32.17;99405.56;5060729;28;20044;-67
2022/08/06 08:59:03;;;;;;;9.82;4.53;;;;;;;34.35;30.89;99406.06;5060905;28;20323;-67
2022/08/06 09:01:29;;;;;;;5.93;4.20;;;;;;;34.69;30.25;99398.81;5060164;28;20074;-67
2022/08/06 09:03:55;;;;;;;7.38;4.15;;;;;;;34.93;29.97;99399.03;5061036;28;20032;-67
2022/08/06 09:06:22;;;;;;;7.63;4.28;;;;;;;35.08;31.00;99395.72;5060775;28;20032;-67
2022/08/06 09:08:48;;;;;;;6.00;3.97;;;;;;;35.22;29.41;99393.53;5075860;28;20045;-67
2022/08/06 09:11:14;;;;;;;12.55;4.60;;;;;;;35.19;29.18;99396.94;5061597;28;20226;-67
2022/08/06 09:13:40;;;;;;;5.13;4.25;;;;;;;35.23;29.86;99391.59;5060113;28;20064;-67
2022/08/06 09:16:06;;;;;;;6.22;4.20;;;;;;;35.13;29.18;99392.78;5059895;28;20063;-67
2022/08/06 09:18:32;;;;;;;7.18;4.05;;;;;;;35.06;28.53;99377.94;5061503;28;20104;-67
2022/08/06 09:21:01;;;;;;;5.75;4.00;;;;;;;35.19;28.70;99383.19;5061911;28;20072;-67
2022/08/06 09:23:27;;;;;;;10.15;4.45;;;;;;;35.01;29.33;99381.69;5059279;28;20036;-67
2022/08/06 09:25:53;;;;;;;7.38;4.60;;;;;;;35.01;28.99;99370.69;5060750;28;20238;-67
2022/08/06 09:28:46;;;;;;;4.60;4.10;;;;;;;35.18;28.67;99380.78;5062745;28;20112;-67
2022/08/06 09:31:20;;;;;;;10.68;5.00;;;;;;;35.00;29.10;99374.56;5061166;28;20309;-68
2022/08/06 09:33:58;;;;;;;7.50;4.53;;;;;;;34.91;29.46;99373.81;5062020;28;20112;-67
2022/08/06 09:36:24;;;;;;;6.43;4.50;;;;;;;34.94;30.25;99373.16;5061816;28;20029;-68
2022/08/06 09:38:55;;;;;;;7.70;4.47;;;;;;;34.79;29.45;99385.50;5063718;28;20107;-68
2022/08/06 09:41:23;;;;;;;6.63;4.35;;;;;;;34.64;29.75;99350.31;5061982;28;20053;-68
2022/08/06 09:43:52;;;;;;;6.63;4.20;;;;;;;34.71;28.77;99374.53;5062456;28;20033;-67
2022/08/06 09:46:34;;;;;;;7.35;4.38;;;;;;;34.49;29.11;99361.88;5062152;28;20037;-67
2022/08/06 09:49:01;;;;;;;8.15;4.25;;;;;;;34.46;30.53;99363.31;5061713;28;20148;-67
2022/08/06 09:51:27;;;;;;;6.50;4.43;;;;;;;34.51;30.90;99374.16;5063675;28;20041;-67
2022/08/06 09:53:59;;;;;;;5.10;4.25;;;;;;;34.65;29.20;99368.41;5062294;28;20245;-67
2022/08/06 09:56:26;;;;;;;9.15;4.60;;;;;;;34.47;29.91;99367.69;5061717;28;20025;-67
2022/08/06 09:59:00;;;;;;;6.20;4.35;;;;;;;34.33;29.48;99371.75;5062009;28;20045;-67
2022/08/06 10:01:27;;;;;;;4.47;4.07;;;;;;;34.26;29.55;99364.00;5061458;28;20314;-67
2022/08/06 10:03:55;;;;;;;4.38;3.92;;;;;;;34.48;30.52;99363.00;5061569;28;20045;-67
2022/08/06 10:06:21;;;;;;;7.47;3.95;;;;;;;34.48;30.28;99365.75;5061869;28;20035;-67
2022/08/06 10:08:49;;;;;;;6.00;4.45;;;;;;;34.42;30.49;99356.88;5062076;28;20033;-67
2022/08/06 10:11:15;;;;;;;9.52;4.10;;;;;;;34.39;30.05;99360.28;5059890;28;20029;-67
2022/08/06 10:13:47;;;;;;;5.50;4.07;;;;;;;34.51;30.12;99356.84;5060575;28;20318;-67
2022/08/06 10:16:26;;;;;;;4.75;4.00;;;;;;;34.39;29.84;99357.53;5059799;28;20200;-68
2022/08/06 10:18:53;;;;;;;4.57;4.10;;;;;;;34.31;29.77;99360.25;5061709;28;20380;-67
2022/08/06 10:21:22;;;;;;;7.30;4.38;;;;;;;34.11;29.64;99351.59;5061726;28;20092;-68
2022/08/06 10:23:51;;;;;;;5.07;3.80;;;;;;;34.19;29.58;99350.75;5061593;28;20033;-67
2022/08/06 10:26:19;;;;;;;9.15;4.40;;;;;;;34.26;30.10;99339.25;5061303;28;20115;-67
2022/08/06 10:28:48;;;;;;;6.47;4.50;;;;;;;34.02;31.05;99334.31;5061471;28;20033;-67
2022/08/06 10:31:14;;;;;;;7.72;4.50;;;;;;;33.95;31.04;99342.25;5061033;28;20102;-67
2022/08/06 10:34:01;;;;;;;6.10;4.13;;;;;;;34.23;29.44;99337.16;5061323;28;20041;-67
2022/08/06 10:36:40;;;;;;;4.00;3.70;;;;;;;34.35;30.11;99333.78;5076863;28;20064;-67
2022/08/06 10:39:06;;;;;;;6.70;4.30;;;;;;;34.26;30.59;99325.50;5060764;28;20104;-67
2022/08/06 10:41:35;;;;;;;6.90;4.75;;;;;;;34.33;30.14;99331.34;5061099;28;20044;-67
2022/08/06 10:44:02;;;;;;;6.72;4.30;;;;;;;34.20;30.29;99319.38;5060459;28;20029;-67
2022/08/06 10:46:28;;;;;;;8.65;4.43;;;;;;;34.20;30.40;99324.88;5060735;28;20029;-67
2022/08/06 10:48:54;;;;;;;7.60;4.35;;;;;;;34.23;30.81;99326.97;5076208;28;20104;-67
2022/08/06 10:51:20;;;;;;;6.05;4.10;;;;;;;34.22;29.13;99325.38;5061120;28;20032;-67
2022/08/06 10:53:46;;;;;;;6.70;4.43;;;;;;;34.19;29.42;99316.97;5060980;28;20273;-67
2022/08/06 10:56:14;;;;;;;4.82;4.22;;;;;;;34.14;29.54;99322.66;5060918;28;20040;-67
2022/08/06 10:58:40;;;;;;;8.98;4.68;;;;;;;33.94;30.70;99315.91;5061134;28;20037;-67
2022/08/06 11:01:15;;;;;;;9.63;4.68;;;;;;;34.08;29.87;99310.22;5060712;28;20047;-67
2022/08/06 11:03:46;;;;;;;6.53;4.30;;;;;;;34.03;30.82;99310.41;5060503;28;20036;-67
2022/08/06 11:06:40;;;;;;;6.43;4.57;;;;;;;34.29;31.17;99302.88;5059401;28;20316;-68
2022/08/06 11:09:24;;;;;;;7.00;4.50;;;;;;;34.54;30.03;99298.44;5058040;28;20082;-68
2022/08/06 11:12:07;;;;;;;;;;;;;;;34.61;29.40;99301.47;5058208;28;20538;-67
2022/08/06 11:14:36;;;;;;;9.77;4.47;;;;;;;34.49;29.80;99299.44;5057262;28;20233;-67
2022/08/06 11:17:02;;;;;;;7.88;4.10;;;;;;;34.53;28.93;99297.63;5057046;28;20037;-67
2022/08/06 11:19:39;;;;;;;5.50;3.83;;;;;;;34.40;28.93;99287.69;5073351;28;20047;-67
2022/08/06 11:22:05;;;;;;;6.85;3.90;;;;;;;34.34;29.92;99285.44;5057362;28;20051;-67
2022/08/06 11:24:31;;;;;;;4.55;3.92;;;;;;;34.30;30.14;99268.75;5057262;28;20037;-67
2022/08/06 11:26:57;;;;;;;9.40;4.50;;;;;;;34.54;29.23;99292.94;5058352;28;20029;-67
2022/08/06 11:29:22;;;;;;;13.20;4.05;;;;;;;34.36;29.07;99280.44;5057013;28;20288;-67
2022/08/06 11:31:51;;;;;;;6.78;4.10;;;;;;;34.20;28.77;99278.16;5056513;28;20381;-67
2022/08/06 11:34:20;;;;;;;4.78;4.20;;;;;;;34.23;29.32;99290.44;5056946;28;20033;-67
2022/08/06 11:36:49;;;;;;;7.50;4.18;;;;;;;34.36;29.23;99286.72;5057509;28;20533;-67
2022/08/06 11:39:16;;;;;;;6.60;4.22;;;;;;;34.55;28.86;99276.13;5059247;28;20151;-67
2022/08/06 11:41:46;;;;;;;5.97;4.07;;;;;;;34.44;28.79;99279.56;5076182;28;20021;-67
2022/08/06 11:44:16;;;;;;;5.20;3.70;;;;;;;34.55;29.42;99280.81;5059899;28;20060;-67